createdAt,value
2022-12-13T00:01:47.901Z,-0.30
2022-12-13T00:04:15.885Z,-0.30
2022-12-13T00:06:43.594Z,-0.30
2022-12-13T00:09:14.317Z,-0.30
2022-12-13T00:11:41.486Z,-0.30
2022-12-13T00:14:09.060Z,-0.40
2022-12-13T00:16:36.300Z,-0.40
2022-12-13T00:19:03.909Z,-0.40
2022-12-13T00:21:33.338Z,-0.50
2022-12-13T00:24:01.412Z,-0.50
2022-12-13T00:26:31.161Z,-0.50
2022-12-13T00:29:04.632Z,-0.60
2022-12-13T00:34:20.111Z,-0.70
2022-12-13T00:36:48.301Z,-0.80
2022-12-13T00:39:17.159Z,-0.80
2022-12-13T00:41:45.245Z,-0.80
2022-12-13T00:44:13.720Z,-0.80
2022-12-13T00:46:42.101Z,-0.80
2022-12-13T00:49:10.749Z,-0.90
2022-12-13T00:51:38.382Z,-0.90
2022-12-13T00:54:06.619Z,-0.90
2022-12-13T00:56:34.212Z,-1.00
2022-12-13T00:59:01.729Z,-1.00
2022-12-13T01:01:34.485Z,-1.00
2022-12-13T01:04:03.857Z,-1.00
2022-12-13T01:06:38.712Z,-1.00
2022-12-13T01:09:13.006Z,-1.10
2022-12-13T01:11:40.258Z,-1.10
2022-12-13T01:14:07.905Z,-1.10
2022-12-13T01:16:35.167Z,-1.10
2022-12-13T01:19:02.775Z,-1.10
2022-12-13T01:21:30.287Z,-1.10
2022-12-13T01:24:04.794Z,-1.10
2022-12-13T01:26:33.189Z,-1.10
2022-12-13T01:29:02.341Z,-1.10
2022-12-13T01:31:29.526Z,-1.10
2022-12-13T01:33:57.763Z,-1.20
2022-12-13T01:36:27.420Z,-1.20
2022-12-13T01:38:59.333Z,-1.20
2022-12-13T01:41:28.921Z,-1.20
2022-12-13T01:44:03.632Z,-1.20
2022-12-13T01:46:36.187Z,-1.20
2022-12-13T01:49:19.532Z,-1.30
2022-12-13T01:51:59.991Z,-1.30
2022-12-13T01:54:37.564Z,-1.30
2022-12-13T01:57:09.207Z,-1.30
2022-12-13T01:59:39.910Z,-1.30
2022-12-13T02:02:09.961Z,-1.30
2022-12-13T02:04:44.025Z,-1.40
2022-12-13T02:07:22.695Z,-1.40
2022-12-13T02:09:57.995Z,-1.40
2022-12-13T02:12:29.463Z,-1.40
2022-12-13T02:15:11.860Z,-1.40
2022-12-13T02:17:53.014Z,-1.40
2022-12-13T02:20:38.722Z,-1.40
2022-12-13T02:23:36.698Z,-1.50
2022-12-13T02:26:29.116Z,-1.50
2022-12-13T02:29:30.961Z,-1.50
2022-12-13T02:32:32.223Z,-1.50
2022-12-13T02:35:17.812Z,-1.50
2022-12-13T02:37:57.478Z,-1.60
2022-12-13T02:40:38.212Z,-1.60
2022-12-13T02:43:11.798Z,-1.60
2022-12-13T02:45:48.431Z,-1.60
2022-12-13T02:48:18.415Z,-1.60
2022-12-13T02:50:47.533Z,-1.60
2022-12-13T02:53:15.890Z,-1.60
2022-12-13T02:55:44.301Z,-1.70
2022-12-13T02:58:18.898Z,-1.70
2022-12-13T03:00:52.272Z,-1.70
2022-12-13T03:03:38.492Z,-1.70
2022-12-13T03:06:33.496Z,-1.70
2022-12-13T03:09:10.643Z,-1.70
2022-12-13T03:12:23.190Z,-1.70
2022-12-13T03:15:05.641Z,-1.80
2022-12-13T03:17:39.621Z,-1.80
2022-12-13T03:20:12.829Z,-1.80
2022-12-13T03:22:51.970Z,-1.70
2022-12-13T03:25:30.604Z,-1.80
2022-12-13T03:28:01.718Z,-1.80
2022-12-13T03:30:32.193Z,-1.80
2022-12-13T03:33:00.118Z,-1.80
2022-12-13T03:35:34.660Z,-1.80
2022-12-13T03:38:21.224Z,-1.80
2022-12-13T03:41:05.809Z,-1.90
2022-12-13T03:43:33.095Z,-1.90
2022-12-13T03:46:01.368Z,-1.90
2022-12-13T03:48:28.712Z,-1.90
2022-12-13T03:50:56.755Z,-2.00
2022-12-13T03:53:33.742Z,-2.00
2022-12-13T03:56:05.383Z,-2.00
2022-12-13T03:58:35.459Z,-2.10
2022-12-13T04:01:10.186Z,-2.10
2022-12-13T04:03:38.799Z,-2.10
2022-12-13T04:06:07.536Z,-2.10
2022-12-13T04:08:37.016Z,-2.10
2022-12-13T04:11:25.445Z,-2.20
2022-12-13T04:13:55.547Z,-2.20
2022-12-13T04:16:24.415Z,-2.20
2022-12-13T04:18:51.747Z,-2.20
2022-12-13T04:21:19.298Z,-2.20
2022-12-13T04:23:46.509Z,-2.30
2022-12-13T04:26:14.283Z,-2.30
2022-12-13T04:28:41.496Z,-2.30
2022-12-13T04:31:08.986Z,-2.30
2022-12-13T04:33:36.174Z,-2.30
2022-12-13T04:36:04.491Z,-2.30
2022-12-13T04:38:31.619Z,-2.30
2022-12-13T04:41:12.818Z,-2.30
2022-12-13T04:43:40.062Z,-2.30
2022-12-13T04:46:07.562Z,-2.30
2022-12-13T04:48:34.883Z,-2.30
2022-12-13T04:51:02.438Z,-2.30
2022-12-13T04:53:30.220Z,-2.30
2022-12-13T04:55:57.849Z,-2.30
2022-12-13T04:58:25.207Z,-2.30
2022-12-13T05:00:53.008Z,-2.20
2022-12-13T05:03:20.491Z,-2.30
2022-12-13T05:05:48.003Z,-2.30
2022-12-13T05:08:15.634Z,-2.30
2022-12-13T05:10:43.232Z,-2.40
2022-12-13T05:13:10.438Z,-2.40
2022-12-13T05:15:52.109Z,-2.40
2022-12-13T05:18:22.313Z,-2.50
2022-12-13T05:20:51.343Z,-2.50
2022-12-13T05:23:22.500Z,-2.50
2022-12-13T05:25:51.630Z,-2.50
2022-12-13T05:28:27.963Z,-2.50
2022-12-13T05:30:58.763Z,-2.50
2022-12-13T05:33:27.120Z,-2.50
2022-12-13T05:35:59.365Z,-2.50
2022-12-13T05:38:29.098Z,-2.40
2022-12-13T05:40:56.607Z,-2.40
2022-12-13T05:43:42.123Z,-2.40
2022-12-13T05:46:12.802Z,-2.40
2022-12-13T05:48:40.897Z,-2.40
2022-12-13T05:51:09.794Z,-2.40
2022-12-13T05:53:40.227Z,-2.40
2022-12-13T05:56:08.387Z,-2.40
2022-12-13T05:58:37.303Z,-2.40
2022-12-13T06:01:07.249Z,-2.40
2022-12-13T06:03:35.365Z,-2.30
2022-12-13T06:06:05.049Z,-2.40
2022-12-13T06:08:32.513Z,-2.40
2022-12-13T06:11:10.820Z,-2.40
2022-12-13T06:13:43.698Z,-2.30
2022-12-13T06:16:22.559Z,-2.40
2022-12-13T06:18:59.398Z,-2.40
2022-12-13T06:21:40.780Z,-2.30
2022-12-13T06:24:14.643Z,-2.40
2022-12-13T06:26:45.393Z,-2.40
2022-12-13T06:29:24.040Z,-2.40
2022-12-13T06:32:02.162Z,-2.40
2022-12-13T06:34:33.679Z,-2.40
2022-12-13T06:37:05.178Z,-2.40
2022-12-13T06:39:33.672Z,-2.50
2022-12-13T06:42:06.549Z,-2.50
2022-12-13T06:44:35.231Z,-2.50
2022-12-13T06:47:11.370Z,-2.60
2022-12-13T06:49:43.212Z,-2.60
2022-12-13T06:52:13.340Z,-2.60
2022-12-13T06:54:43.944Z,-2.70
2022-12-13T06:57:12.614Z,-2.80
2022-12-13T06:59:40.587Z,-2.70
2022-12-13T07:02:24.242Z,-2.80
2022-12-13T07:04:53.206Z,-2.80
2022-12-13T07:07:20.754Z,-2.80
2022-12-13T07:09:48.032Z,-2.80
2022-12-13T07:12:15.505Z,-2.80
2022-12-13T07:14:42.845Z,-2.80
2022-12-13T07:17:10.987Z,-2.70
2022-12-13T07:19:39.112Z,-2.70
2022-12-13T07:22:06.812Z,-2.60
2022-12-13T07:24:37.150Z,-2.70
2022-12-13T07:27:05.198Z,-2.60
2022-12-13T07:29:32.409Z,-2.50
2022-12-13T07:32:01.397Z,-2.60
2022-12-13T07:34:30.193Z,-2.60
2022-12-13T07:36:57.835Z,-2.70
2022-12-13T07:39:26.390Z,-2.60
2022-12-13T07:41:56.256Z,-2.60
2022-12-13T07:44:24.625Z,-2.60
2022-12-13T07:46:52.373Z,-2.60
2022-12-13T07:49:20.154Z,-2.60
2022-12-13T07:51:49.123Z,-2.50
2022-12-13T07:54:16.409Z,-2.60
2022-12-13T07:56:44.076Z,-2.50
2022-12-13T07:59:13.270Z,-2.40
2022-12-13T08:01:40.826Z,-2.40
2022-12-13T08:04:10.027Z,-2.40
2022-12-13T08:06:38.390Z,-2.30
2022-12-13T08:09:06.236Z,-2.30
2022-12-13T08:11:34.572Z,-2.10
2022-12-13T08:14:02.097Z,-2.10
2022-12-13T08:16:30.547Z,-2.00
2022-12-13T08:19:01.803Z,-1.90
2022-12-13T08:21:56.809Z,-1.80
2022-12-13T08:24:28.506Z,-1.80
2022-12-13T08:27:01.226Z,-1.80
2022-12-13T08:29:34.768Z,-1.70
2022-12-13T08:32:09.437Z,-1.70
2022-12-13T08:34:37.197Z,-1.60
2022-12-13T08:37:05.513Z,-1.60
2022-12-13T08:39:37.231Z,-1.50
2022-12-13T08:42:18.808Z,-1.50
2022-12-13T08:44:49.226Z,-1.50
2022-12-13T08:47:24.815Z,-1.40
2022-12-13T08:49:54.500Z,-1.40
2022-12-13T08:52:23.891Z,-1.30
2022-12-13T08:54:51.796Z,-1.30
2022-12-13T08:57:19.540Z,-1.30
2022-12-13T08:59:47.448Z,-1.30
2022-12-13T09:02:15.740Z,-1.30
2022-12-13T09:04:43.562Z,-1.30
2022-12-13T09:07:11.332Z,-1.30
2022-12-13T09:09:38.706Z,-1.20
2022-12-13T09:12:10.843Z,-1.20
2022-12-13T09:15:01.614Z,-1.20
2022-12-13T09:17:36.300Z,-1.20
2022-12-13T09:20:10.302Z,-1.20
2022-12-13T09:23:01.683Z,-1.20
2022-12-13T09:25:36.962Z,-1.10
2022-12-13T09:28:07.564Z,-1.20
2022-12-13T09:30:38.478Z,-1.10
2022-12-13T09:33:27.951Z,-1.10
2022-12-13T09:35:53.594Z,-1.10
2022-12-13T09:38:21.448Z,-1.10
2022-12-13T09:40:58.474Z,-1.10
2022-12-13T09:43:33.554Z,-1.10
2022-12-13T09:46:22.936Z,-1.10
2022-12-13T09:49:01.391Z,-1.10
2022-12-13T09:51:43.541Z,-1.10
2022-12-13T09:54:22.484Z,-1.10
2022-12-13T09:56:51.064Z,-1.10
2022-12-13T09:59:26.713Z,-1.10
2022-12-13T10:01:54.407Z,-1.10
2022-12-13T10:04:22.082Z,-1.10
2022-12-13T10:06:57.804Z,-1.10
2022-12-13T10:09:25.332Z,-1.10
2022-12-13T10:11:54.279Z,-1.10
2022-12-13T10:14:36.639Z,-1.10
2022-12-13T10:17:09.378Z,-1.00
2022-12-13T10:19:42.263Z,-1.00
2022-12-13T10:22:13.957Z,-1.00
2022-12-13T10:24:56.600Z,-0.90
2022-12-13T10:27:37.026Z,-1.00
2022-12-13T10:30:12.466Z,-0.90
2022-12-13T10:33:00.737Z,-1.00
2022-12-13T10:35:30.286Z,-0.90
2022-12-13T10:38:01.652Z,-1.00
2022-12-13T10:40:35.061Z,-1.00
2022-12-13T10:43:22.578Z,-1.00
2022-12-13T10:45:59.358Z,-1.00
2022-12-13T10:48:49.129Z,-1.00
2022-12-13T10:51:22.258Z,-1.10
2022-12-13T10:53:55.225Z,-1.10
2022-12-13T10:56:33.003Z,-1.20
2022-12-13T10:59:17.253Z,-1.10
2022-12-13T11:01:45.236Z,-1.20
2022-12-13T11:04:27.735Z,-1.10
2022-12-13T11:06:57.753Z,-1.10
2022-12-13T11:09:28.047Z,-1.10
2022-12-13T11:12:04.282Z,-1.00
2022-12-13T11:14:43.345Z,-1.00
2022-12-13T11:17:17.060Z,-1.00
2022-12-13T11:19:51.957Z,-1.00
2022-12-13T11:22:35.399Z,-1.00
2022-12-13T11:25:21.459Z,-1.00
2022-12-13T11:28:25.950Z,-1.10
2022-12-13T11:31:20.762Z,-1.00
2022-12-13T11:34:21.839Z,-1.00
2022-12-13T11:36:54.234Z,-1.10
2022-12-13T11:39:32.093Z,-1.20
2022-12-13T11:42:33.447Z,-1.10
2022-12-13T11:45:11.742Z,-1.10
2022-12-13T11:47:49.978Z,-1.10
2022-12-13T11:50:37.084Z,-1.10
2022-12-13T11:53:28.930Z,-1.20
2022-12-13T11:56:11.329Z,-1.20
2022-12-13T11:59:03.431Z,-1.20
2022-12-13T12:02:16.437Z,-1.20
2022-12-13T12:05:00.107Z,-1.20
2022-12-13T12:07:58.510Z,-1.20
2022-12-13T12:11:02.596Z,-1.10
2022-12-13T12:13:50.355Z,-1.10
2022-12-13T12:16:54.294Z,-1.20
2022-12-13T12:19:25.240Z,-1.10
2022-12-13T12:22:32.960Z,-1.20
2022-12-13T12:25:25.071Z,-1.20
2022-12-13T12:28:46.631Z,-1.10
2022-12-13T12:31:35.730Z,-1.10
2022-12-13T12:34:27.327Z,-1.10
2022-12-13T12:37:33.633Z,-1.10
2022-12-13T12:43:33.355Z,-1.20
2022-12-13T12:46:25.639Z,-1.10
2022-12-13T12:49:27.890Z,-1.10
2022-12-13T12:52:18.387Z,-1.10
2022-12-13T12:55:12.994Z,-1.00
2022-12-13T12:58:17.448Z,-1.00
2022-12-13T13:00:59.359Z,-1.00
2022-12-13T13:03:29.812Z,-1.10
2022-12-13T13:06:16.330Z,-1.10
2022-12-13T13:09:00.897Z,-1.10
2022-12-13T13:11:34.206Z,-1.10
2022-12-13T13:14:33.799Z,-1.20
2022-12-13T13:17:24.014Z,-1.20
2022-12-13T13:20:20.663Z,-1.20
2022-12-13T13:23:04.032Z,-1.20
2022-12-13T13:25:54.063Z,-1.20
2022-12-13T13:28:23.130Z,-1.30
2022-12-13T13:31:10.897Z,-1.30
2022-12-13T13:33:41.858Z,-1.30
2022-12-13T13:36:09.755Z,-1.50
2022-12-13T13:38:52.274Z,-1.40
2022-12-13T13:41:38.795Z,-1.40
2022-12-13T13:44:40.839Z,-1.40
2022-12-13T13:47:15.103Z,-1.40
2022-12-13T13:50:12.743Z,-1.40
2022-12-13T13:52:59.139Z,-1.30
2022-12-13T13:56:02.268Z,-1.40
2022-12-13T13:58:32.445Z,-1.30
2022-12-13T14:01:09.032Z,-1.30
2022-12-13T14:04:07.219Z,-1.40
2022-12-13T14:07:14.367Z,-1.40
2022-12-13T14:10:04.718Z,-1.40
2022-12-13T14:12:35.925Z,-1.40
2022-12-13T14:15:41.194Z,-1.40
2022-12-13T14:18:51.619Z,-1.40
2022-12-13T14:22:13.353Z,-1.40
2022-12-13T14:24:44.137Z,-1.40
2022-12-13T14:27:35.658Z,-1.40
2022-12-13T14:30:26.958Z,-1.40
2022-12-13T14:32:52.991Z,-1.50
2022-12-13T14:35:26.909Z,-1.50
2022-12-13T14:38:06.038Z,-1.50
2022-12-13T14:40:47.305Z,-1.50
2022-12-13T14:43:29.451Z,-1.50
2022-12-13T14:46:00.018Z,-1.50
2022-12-13T14:48:29.656Z,-1.50
2022-12-13T14:50:57.858Z,-1.60
2022-12-13T14:53:37.854Z,-1.60
2022-12-13T14:56:09.420Z,-1.60
2022-12-13T14:58:38.157Z,-1.60
2022-12-13T15:01:07.873Z,-1.60
2022-12-13T15:03:35.338Z,-1.60
2022-12-13T15:06:04.523Z,-1.60
2022-12-13T15:08:34.369Z,-1.50
2022-12-13T15:11:09.546Z,-1.60
2022-12-13T15:13:43.331Z,-1.50
2022-12-13T15:16:23.739Z,-1.60
2022-12-13T15:19:30.954Z,-1.50
2022-12-13T15:22:07.664Z,-1.50
2022-12-13T15:24:48.617Z,-1.50
2022-12-13T15:27:29.060Z,-1.50
2022-12-13T15:29:56.568Z,-1.50
2022-12-13T15:32:24.095Z,-1.50
2022-12-13T15:34:52.242Z,-1.50
2022-12-13T15:37:29.136Z,-1.50
2022-12-13T15:40:08.916Z,-1.50
2022-12-13T15:42:43.421Z,-1.50
2022-12-13T15:45:25.732Z,-1.50
2022-12-13T15:47:55.784Z,-1.50
2022-12-13T15:50:50.327Z,-1.50
2022-12-13T15:53:29.485Z,-1.50
2022-12-13T15:55:58.243Z,-1.50
2022-12-13T15:58:29.935Z,-1.50
2022-12-13T16:00:58.501Z,-1.50
2022-12-13T16:03:27.126Z,-1.50
2022-12-13T16:05:56.608Z,-1.50
2022-12-13T16:08:35.934Z,-1.50
2022-12-13T16:11:04.031Z,-1.60
2022-12-13T16:13:37.516Z,-1.60
2022-12-13T16:16:28.101Z,-1.60
2022-12-13T16:18:58.630Z,-1.60
2022-12-13T16:21:26.929Z,-1.70
2022-12-13T16:23:54.975Z,-1.70
2022-12-13T16:26:26.254Z,-1.70
2022-12-13T16:28:56.999Z,-1.70
2022-12-13T16:31:35.266Z,-1.70
2022-12-13T16:34:04.096Z,-1.70
2022-12-13T16:36:32.829Z,-1.70
2022-12-13T16:39:01.367Z,-1.70
2022-12-13T16:41:28.709Z,-1.80
2022-12-13T16:43:58.770Z,-1.80
2022-12-13T16:47:14.684Z,-1.80
2022-12-13T16:49:21.977Z,-1.80
2022-12-13T16:51:49.541Z,-1.80
2022-12-13T16:54:18.788Z,-1.80
2022-12-13T16:56:46.696Z,-1.80
2022-12-13T16:59:17.319Z,-1.80
2022-12-13T17:01:45.701Z,-1.80
2022-12-13T17:04:20.987Z,-1.80
2022-12-13T17:06:54.906Z,-1.70
2022-12-13T17:09:25.051Z,-1.80
2022-12-13T17:11:52.242Z,-1.80
2022-12-13T17:14:19.815Z,-1.80
2022-12-13T17:16:47.549Z,-1.90
2022-12-13T17:19:15.761Z,-1.90
2022-12-13T17:21:43.449Z,-1.80
2022-12-13T17:24:10.981Z,-1.80
2022-12-13T17:26:38.298Z,-1.90
2022-12-13T17:29:05.767Z,-1.80
2022-12-13T17:31:36.547Z,-1.90
2022-12-13T17:34:05.261Z,-1.90
2022-12-13T17:36:32.573Z,-1.80
2022-12-13T17:39:00.085Z,-1.80
2022-12-13T17:41:27.277Z,-1.80
2022-12-13T17:43:59.555Z,-1.80
2022-12-13T17:46:26.907Z,-1.90
2022-12-13T17:48:54.402Z,-1.90
2022-12-13T17:51:21.707Z,-1.90
2022-12-13T17:53:49.187Z,-1.90
2022-12-13T17:56:17.952Z,-1.90
2022-12-13T17:58:46.031Z,-2.00
2022-12-13T18:01:19.366Z,-1.90
2022-12-13T18:03:50.298Z,-2.00
2022-12-13T18:06:17.898Z,-2.00
2022-12-13T18:08:46.800Z,-2.00
2022-12-13T18:14:04.994Z,-2.00
2022-12-13T18:16:38.762Z,-2.00
2022-12-13T18:19:08.982Z,-2.00
2022-12-13T18:21:37.114Z,-2.10
2022-12-13T18:24:06.500Z,-2.10
2022-12-13T18:26:34.868Z,-2.10
2022-12-13T18:29:04.132Z,-2.10
2022-12-13T18:31:31.661Z,-2.10
2022-12-13T18:33:59.843Z,-2.10
2022-12-13T18:36:27.443Z,-2.10
2022-12-13T18:38:55.486Z,-2.10
2022-12-13T18:41:27.940Z,-2.20
2022-12-13T18:43:59.170Z,-2.10
2022-12-13T18:46:28.778Z,-2.10
2022-12-13T18:48:56.977Z,-2.10
2022-12-13T18:51:25.080Z,-2.10
2022-12-13T18:53:55.944Z,-2.20
2022-12-13T18:56:25.610Z,-2.20
2022-12-13T18:58:54.049Z,-2.20
2022-12-13T19:01:22.914Z,-2.20
2022-12-13T19:03:51.219Z,-2.20
2022-12-13T19:06:24.409Z,-2.20
2022-12-13T19:08:54.753Z,-2.20
2022-12-13T19:11:23.057Z,-2.20
2022-12-13T19:13:50.721Z,-2.20
2022-12-13T19:16:21.282Z,-2.10
2022-12-13T19:18:52.405Z,-2.20
2022-12-13T19:21:22.845Z,-2.20
2022-12-13T19:23:57.364Z,-2.30
2022-12-13T19:26:26.867Z,-2.20
2022-12-13T19:28:56.932Z,-2.20
2022-12-13T19:31:30.568Z,-2.30
2022-12-13T19:34:01.087Z,-2.30
2022-12-13T19:36:30.569Z,-2.30
2022-12-13T19:38:58.433Z,-2.30
2022-12-13T19:41:26.329Z,-2.30
2022-12-13T19:43:54.326Z,-2.40
2022-12-13T19:46:22.159Z,-2.40
2022-12-13T19:48:50.108Z,-2.40
2022-12-13T19:51:17.942Z,-2.30
2022-12-13T19:53:45.448Z,-2.40
2022-12-13T19:56:16.296Z,-2.40
2022-12-13T19:58:45.369Z,-2.50
2022-12-13T20:01:13.820Z,-2.40
2022-12-13T20:03:43.807Z,-2.40
2022-12-13T20:06:13.202Z,-2.40
2022-12-13T20:08:41.320Z,-2.50
2022-12-13T20:11:11.382Z,-2.50
2022-12-13T20:13:39.847Z,-2.50
2022-12-13T20:16:07.871Z,-2.50
2022-12-13T20:18:35.633Z,-2.50
2022-12-13T20:21:13.567Z,-2.60
2022-12-13T20:23:49.606Z,-2.60
2022-12-13T20:26:34.017Z,-2.60
2022-12-13T20:29:01.524Z,-2.60
2022-12-13T20:31:31.212Z,-2.60
2022-12-13T20:34:02.422Z,-2.50
2022-12-13T20:36:31.555Z,-2.60
2022-12-13T20:39:01.127Z,-2.60
2022-12-13T20:41:30.367Z,-2.60
2022-12-13T20:44:00.644Z,-2.70
2022-12-13T20:46:29.633Z,-2.70
2022-12-13T20:49:00.581Z,-2.70
2022-12-13T20:51:29.660Z,-2.80
2022-12-13T20:53:57.470Z,-2.80
2022-12-13T20:56:27.656Z,-2.80
2022-12-13T20:58:55.892Z,-2.90
2022-12-13T21:01:26.226Z,-2.90
2022-12-13T21:03:55.650Z,-2.90
2022-12-13T21:06:23.153Z,-2.90
2022-12-13T21:09:00.039Z,-2.90
2022-12-13T21:11:35.126Z,-3.00
2022-12-13T21:14:20.428Z,-3.00
2022-12-13T21:16:57.760Z,-3.00
2022-12-13T21:19:27.982Z,-3.00
2022-12-13T21:21:56.359Z,-3.10
2022-12-13T21:24:25.474Z,-3.10
2022-12-13T21:26:55.742Z,-3.10
2022-12-13T21:29:23.256Z,-3.10
2022-12-13T21:31:51.037Z,-3.20
2022-12-13T21:34:19.787Z,-3.20
2022-12-13T21:36:49.316Z,-3.20
2022-12-13T21:39:27.919Z,-3.30
2022-12-13T21:41:56.208Z,-3.30
2022-12-13T21:44:23.906Z,-3.40
2022-12-13T21:49:39.286Z,-3.40
2022-12-13T21:52:06.826Z,-3.40
2022-12-13T21:54:34.651Z,-3.50
2022-12-13T21:57:20.367Z,-3.50
2022-12-13T21:59:48.082Z,-3.60
2022-12-13T22:02:18.377Z,-3.60
2022-12-13T22:04:55.548Z,-3.60
2022-12-13T22:07:27.785Z,-3.60
2022-12-13T22:09:56.779Z,-3.70
2022-12-13T22:12:33.031Z,-3.70
2022-12-13T22:15:01.057Z,-3.70
2022-12-13T22:17:35.217Z,-3.70
2022-12-13T22:20:12.873Z,-3.70
2022-12-13T22:22:41.481Z,-3.80
2022-12-13T22:25:10.024Z,-3.80
2022-12-13T22:27:37.462Z,-3.80
2022-12-13T22:30:05.728Z,-3.80
2022-12-13T22:32:33.320Z,-3.80
2022-12-13T22:35:00.972Z,-3.80
2022-12-13T22:37:28.276Z,-3.80
2022-12-13T22:39:55.830Z,-3.90
2022-12-13T22:42:23.051Z,-3.90
2022-12-13T22:44:51.059Z,-3.90
2022-12-13T22:47:18.311Z,-3.90
2022-12-13T22:49:48.641Z,-4.00
2022-12-13T22:52:16.710Z,-3.90
2022-12-13T22:54:44.220Z,-4.00
2022-12-13T22:57:11.662Z,-4.00
2022-12-13T22:59:39.394Z,-4.10
2022-12-13T23:02:06.826Z,-4.10
2022-12-13T23:04:34.473Z,-4.10
2022-12-13T23:07:01.828Z,-4.10
2022-12-13T23:09:29.428Z,-4.20
2022-12-13T23:12:15.571Z,-4.20
2022-12-13T23:14:43.031Z,-4.20
2022-12-13T23:17:10.298Z,-4.30
2022-12-13T23:19:49.642Z,-4.20
2022-12-13T23:22:22.622Z,-4.30
2022-12-13T23:24:51.284Z,-4.30
2022-12-13T23:27:19.761Z,-4.30
2022-12-13T23:29:47.372Z,-4.40
2022-12-13T23:32:15.548Z,-4.40
2022-12-13T23:34:43.054Z,-4.40
2022-12-13T23:37:10.249Z,-4.40
2022-12-13T23:39:37.708Z,-4.50
2022-12-13T23:42:05.172Z,-4.50
2022-12-13T23:44:32.775Z,-4.50
2022-12-13T23:46:59.985Z,-4.50
2022-12-13T23:49:27.496Z,-4.50
2022-12-13T23:51:54.704Z,-4.50
2022-12-13T23:54:22.314Z,-4.60
2022-12-13T23:56:49.557Z,-4.60
2022-12-13T23:59:17.127Z,-4.60
